Time;durP1;ratioP1;P1;durP2;ratioP2;P2;SDS_P1;SDS_P2;PMS_P1;PMS_P2;Temp;Humidity;BMP_temperature;BMP_pressure;BME280_temperature;BME280_humidity;BME280_pressure;Samples;Min_cycle;Max_cycle;Signal;HPM_P1;HPM_P2
2022/08/23 00:00:40;;;;;;;12.07;5.10;;;;;;;19.24;77.97;101334.78;5035511;28;20018;-69
2022/08/23 00:03:05;;;;;;;11.23;5.32;;;;;;;19.19;79.11;101331.28;5035229;28;20025;-69
2022/08/23 00:05:30;;;;;;;11.07;5.28;;;;;;;19.10;79.33;101347.38;5035331;28;20362;-69
2022/08/23 00:07:56;;;;;;;12.18;5.07;;;;;;;19.16;79.63;101338.59;5035307;28;20361;-70
2022/08/23 00:10:21;;;;;;;9.48;5.18;;;;;;;19.04;79.99;101335.16;5035229;28;20117;-71
2022/08/23 00:12:46;;;;;;;12.02;5.22;;;;;;;19.01;80.17;101338.25;5035273;28;20128;-69
2022/08/23 00:15:15;;;;;;;12.05;5.25;;;;;;;18.93;80.65;101336.78;5035118;28;20079;-70
2022/08/23 00:17:41;;;;;;;9.65;5.20;;;;;;;18.90;80.73;101333.81;5035262;28;20433;-69
2022/08/23 00:20:10;;;;;;;11.05;5.20;;;;;;;19.00;81.11;101341.09;5035059;28;20088;-70
2022/08/23 00:22:37;;;;;;;13.80;5.63;;;;;;;18.98;80.79;101337.91;5035051;28;20030;-70
2022/08/23 00:25:05;;;;;;;12.35;5.28;;;;;;;18.78;81.23;101336.44;5034788;28;20025;-69
2022/08/23 00:27:32;;;;;;;11.85;5.15;;;;;;;18.73;82.12;101338.94;5034856;28;20061;-69
2022/08/23 00:29:57;;;;;;;14.40;5.57;;;;;;;18.83;81.78;101335.75;5034833;28;20034;-69
2022/08/23 00:32:26;;;;;;;12.13;5.43;;;;;;;18.89;82.36;101332.22;5034755;28;20079;-70
2022/08/23 00:34:51;;;;;;;11.25;5.15;;;;;;;18.98;81.84;101338.69;5034746;28;20051;-70
2022/08/23 00:37:18;;;;;;;10.55;5.45;;;;;;;19.02;81.88;101331.19;5033420;28;20029;-70
2022/08/23 00:39:44;;;;;;;10.70;5.45;;;;;;;18.90;81.16;101332.00;5034734;28;20492;-70
2022/08/23 00:48:11;;;;;;;12.37;5.60;;;;;;;18.87;82.17;101323.78;4994062;28;20029;-71
2022/08/23 00:50:50;;;;;;;10.98;5.15;;;;;;;18.77;81.94;101331.44;5034299;28;20029;-70
2022/08/23 00:53:23;;;;;;;9.90;5.68;;;;;;;18.78;82.14;101336.44;5032941;28;20049;-70
2022/08/23 00:55:53;;;;;;;10.35;5.25;;;;;;;18.71;83.26;101330.50;5032287;28;20025;-69
2022/08/23 00:58:20;;;;;;;14.48;5.57;;;;;;;18.76;83.09;101337.69;5034442;28;20048;-70
2022/08/23 01:00:49;;;;;;;10.73;5.45;;;;;;;18.68;83.37;101341.41;5034307;28;20473;-70
2022/08/23 01:03:16;;;;;;;10.85;5.90;;;;;;;18.64;83.42;101330.63;5032975;28;20021;-70
2022/08/23 01:05:54;;;;;;;14.20;5.53;;;;;;;18.67;83.35;101330.16;5034117;28;20048;-70
2022/08/23 01:08:24;;;;;;;16.27;5.97;;;;;;;18.81;83.15;101335.97;5034061;28;20030;-70
2022/08/23 01:10:56;;;;;;;12.00;5.50;;;;;;;18.80;83.75;101331.78;5033922;28;20026;-70
2022/08/23 01:13:46;;;;;;;13.18;5.82;;;;;;;18.87;82.98;101340.31;5032841;28;20025;-70
2022/08/23 01:16:27;;;;;;;13.57;5.60;;;;;;;18.94;82.96;101333.13;5032705;28;20546;-70
2022/08/23 01:18:54;;;;;;;12.80;6.20;;;;;;;18.93;83.20;101335.97;5033914;28;20435;-70
2022/08/23 01:21:31;;;;;;;12.15;5.85;;;;;;;19.00;82.45;101335.88;5033898;28;20025;-70
2022/08/23 01:23:59;;;;;;;11.57;6.10;;;;;;;19.11;81.91;101330.63;5033908;28;20025;-70
2022/08/23 01:26:25;;;;;;;14.18;5.70;;;;;;;19.05;82.35;101328.13;5033783;28;20060;-71
2022/08/23 01:28:53;;;;;;;10.20;5.32;;;;;;;18.97;82.31;101329.25;5033589;28;20477;-69
2022/08/23 01:31:21;;;;;;;11.50;5.80;;;;;;;18.95;82.95;101341.78;5033751;28;20065;-71
2022/08/23 01:33:51;;;;;;;12.80;5.85;;;;;;;19.12;82.36;101337.44;5032402;28;20049;-70
2022/08/23 01:36:17;;;;;;;11.50;5.55;;;;;;;18.98;83.22;101330.06;5032346;28;20068;-71
2022/08/23 01:38:42;;;;;;;13.20;5.60;;;;;;;19.03;82.24;101341.44;5033516;28;20061;-70
2022/08/23 01:41:08;;;;;;;12.30;5.60;;;;;;;18.97;82.53;101331.09;5033613;28;20146;-70
2022/08/23 01:43:34;;;;;;;13.90;6.13;;;;;;;19.16;81.61;101338.59;5033649;28;20029;-70
2022/08/23 01:46:10;;;;;;;12.35;5.85;;;;;;;19.15;81.78;101330.94;5033436;28;20075;-70
2022/08/23 01:48:36;;;;;;;10.02;5.38;;;;;;;18.97;82.79;101339.75;5033305;28;20091;-70
2022/08/23 01:51:01;;;;;;;11.18;5.70;;;;;;;18.81;83.25;101335.97;5033397;28;20026;-70
2022/08/23 01:53:26;;;;;;;13.93;6.03;;;;;;;18.65;84.39;101336.63;5033073;28;20052;-70
2022/08/23 01:55:52;;;;;;;11.88;5.85;;;;;;;18.63;84.47;101318.53;5033475;28;20028;-70
2022/08/23 01:58:17;;;;;;;10.82;5.90;;;;;;;18.70;84.68;101328.88;5031972;28;20022;-70
2022/08/23 02:00:43;;;;;;;12.88;6.85;;;;;;;18.72;84.66;101338.09;5033299;28;20025;-69
2022/08/23 02:03:10;;;;;;;16.50;6.20;;;;;;;18.74;84.74;101337.13;5033213;28;20022;-70
2022/08/23 02:05:36;;;;;;;10.77;6.07;;;;;;;18.64;85.20;101335.84;5032047;28;20033;-69
2022/08/23 02:08:59;;;;;;;13.90;6.60;;;;;;;18.69;85.08;101338.56;5033064;28;20104;-70
2022/08/23 02:10:49;;;;;;;14.68;6.40;;;;;;;18.77;84.48;101339.28;5032962;28;20443;-71
2022/08/23 02:13:15;;;;;;;11.95;6.15;;;;;;;18.67;84.64;101343.25;5033227;28;20037;-70
2022/08/23 02:15:43;;;;;;;13.02;6.38;;;;;;;18.71;84.16;101340.97;5033009;28;20025;-70
2022/08/23 02:18:10;;;;;;;17.40;6.78;;;;;;;18.76;84.07;101332.44;5033057;28;20029;-70
2022/08/23 02:20:35;;;;;;;12.48;6.57;;;;;;;18.81;83.85;101333.34;5033188;28;20538;-70
2022/08/23 02:23:01;;;;;;;15.30;6.43;;;;;;;18.61;85.40;101327.63;5031774;28;20022;-69
2022/08/23 02:25:27;;;;;;;10.57;6.30;;;;;;;18.44;86.11;101328.31;5033115;28;20047;-70
2022/08/23 02:27:52;;;;;;;13.95;6.32;;;;;;;18.54;86.28;101324.34;5031765;28;20028;-70
2022/08/23 02:30:17;;;;;;;19.13;6.97;;;;;;;18.20;86.69;101303.91;5032836;28;20116;-70
2022/08/23 02:32:43;;;;;;;19.02;6.88;;;;;;;18.56;85.91;101336.19;5033152;28;20354;-70
2022/08/23 02:35:08;;;;;;;12.75;6.63;;;;;;;18.44;86.54;101336.16;5033005;28;20029;-70
2022/08/23 02:37:34;;;;;;;13.05;6.68;;;;;;;18.32;87.25;101342.38;5032993;28;20030;-70
2022/08/23 02:39:59;;;;;;;12.07;6.70;;;;;;;18.36;87.75;101343.56;5032862;28;20045;-70
2022/08/23 02:42:25;;;;;;;12.63;6.72;;;;;;;18.42;86.69;101351.28;5032909;28;20495;-70
2022/08/23 02:44:50;;;;;;;16.88;7.28;;;;;;;18.32;86.77;101340.56;5032739;28;20469;-70
2022/08/23 02:47:16;;;;;;;15.35;7.00;;;;;;;18.48;86.76;101346.97;5032796;28;20392;-70
2022/08/23 02:49:41;;;;;;;11.32;6.97;;;;;;;18.38;87.29;101352.75;5032737;28;20034;-70
2022/08/23 02:52:07;;;;;;;13.13;7.63;;;;;;;18.45;86.62;101353.44;5032531;28;20077;-70
2022/08/23 02:54:33;;;;;;;12.15;7.05;;;;;;;18.66;85.54;101353.94;5032780;28;20026;-71
2022/08/23 02:56:59;;;;;;;12.88;7.03;;;;;;;18.71;85.90;101365.31;5032941;28;20057;-69
2022/08/23 02:59:24;;;;;;;16.80;6.75;;;;;;;18.72;85.66;101369.53;5031369;28;20063;-70
2022/08/23 03:01:50;;;;;;;19.48;7.53;;;;;;;18.71;85.01;101364.53;5032765;28;20099;-70
2022/08/23 03:04:16;;;;;;;14.50;7.00;;;;;;;18.72;85.13;101363.50;5031408;28;20052;-70
2022/08/23 03:06:41;;;;;;;13.98;6.80;;;;;;;18.77;85.10;101373.31;5031465;28;20025;-70
2022/08/23 03:09:07;;;;;;;12.05;6.55;;;;;;;18.80;84.89;101371.03;5032473;28;20029;-70
2022/08/23 03:11:33;;;;;;;16.63;6.38;;;;;;;18.75;83.67;101362.28;5032745;28;20029;-70
2022/08/23 03:14:00;;;;;;;14.35;6.05;;;;;;;18.98;82.29;101367.50;5032655;28;20112;-70
2022/08/23 03:16:25;;;;;;;13.57;6.45;;;;;;;18.86;82.43;101366.72;5032623;28;20029;-69
2022/08/23 03:18:50;;;;;;;13.18;6.00;;;;;;;19.09;81.40;101371.16;5032624;28;20032;-69
2022/08/23 03:21:17;;;;;;;11.95;5.65;;;;;;;18.97;82.86;101373.78;5036090;28;20026;-69
2022/08/23 03:23:42;;;;;;;9.88;5.50;;;;;;;19.08;81.76;101378.22;5036014;28;20025;-68
2022/08/23 03:26:10;;;;;;;15.70;6.20;;;;;;;19.06;81.61;101371.63;5034742;28;20497;-71
2022/08/23 03:28:37;;;;;;;15.25;5.65;;;;;;;19.16;80.49;101370.03;5035998;28;20037;-70
2022/08/23 03:31:03;;;;;;;10.15;5.40;;;;;;;19.13;81.63;101370.47;5035906;28;20057;-70
2022/08/23 03:33:28;;;;;;;13.63;6.00;;;;;;;19.18;80.83;101375.03;5035907;28;20033;-70
2022/08/23 03:36:01;;;;;;;11.40;5.55;;;;;;;18.98;81.33;101367.50;5035818;28;20079;-71
2022/08/23 03:38:26;;;;;;;8.98;5.75;;;;;;;19.27;80.63;101371.00;5036063;28;20026;-70
2022/08/23 03:40:52;;;;;;;11.20;5.22;;;;;;;19.12;81.41;101362.84;5034590;28;20465;-70
2022/08/23 03:43:18;;;;;;;12.60;5.85;;;;;;;19.18;80.60;101369.78;5035731;28;20029;-70
2022/08/23 03:45:43;;;;;;;12.43;5.50;;;;;;;19.11;80.02;101356.03;5035661;28;20040;-70
2022/08/23 03:48:09;;;;;;;16.30;5.60;;;;;;;19.29;79.55;101360.31;5034423;28;20025;-71
2022/08/23 03:50:35;;;;;;;10.90;5.50;;;;;;;19.19;80.21;101379.25;5035610;28;20033;-70
2022/08/23 03:53:00;;;;;;;8.43;4.97;;;;;;;19.23;80.00;101376.97;5034181;28;20049;-70
2022/08/23 03:55:27;;;;;;;11.68;5.80;;;;;;;19.19;80.03;101370.56;5035761;28;20080;-70
2022/08/23 03:57:52;;;;;;;9.30;5.40;;;;;;;19.22;80.76;101384.03;5035446;28;20017;-70
2022/08/23 04:00:17;;;;;;;13.13;5.65;;;;;;;19.20;81.24;101380.84;5035383;28;20021;-71
2022/08/23 04:02:42;;;;;;;8.93;5.32;;;;;;;19.16;81.29;101370.03;5035593;28;20461;-70
2022/08/23 04:05:09;;;;;;;11.25;5.60;;;;;;;19.13;81.10;101373.09;5035279;28;20075;-70
2022/08/23 04:07:37;;;;;;;14.73;5.53;;;;;;;19.24;81.59;101383.78;5034003;28;20038;-70
2022/08/23 04:10:04;;;;;;;11.23;5.75;;;;;;;19.17;81.28;101371.59;5034027;28;20108;-71
2022/08/23 04:12:30;;;;;;;11.55;5.60;;;;;;;19.18;80.83;101375.03;5035008;28;20040;-71
2022/08/23 04:14:55;;;;;;;10.88;5.75;;;;;;;19.22;81.04;101376.16;5033718;28;20025;-70
2022/08/23 04:17:21;;;;;;;13.65;6.00;;;;;;;19.26;80.89;101382.53;5033854;28;20419;-70
2022/08/23 04:19:46;;;;;;;12.80;5.55;;;;;;;19.26;81.13;101386.97;5033806;28;20550;-71
2022/08/23 04:22:14;;;;;;;12.40;5.53;;;;;;;19.31;81.89;101385.25;5035118;28;20024;-70
2022/08/23 04:24:40;;;;;;;9.23;5.30;;;;;;;19.21;82.31;101392.09;5033782;28;20029;-70
2022/08/23 04:27:06;;;;;;;11.18;5.68;;;;;;;19.16;81.82;101392.78;5017473;28;20025;-71
2022/08/23 04:29:31;;;;;;;13.35;5.32;;;;;;;19.19;81.31;101392.34;5034972;28;20354;-71
2022/08/23 04:31:56;;;;;;;11.35;5.20;;;;;;;19.25;81.98;101388.00;5034749;28;20187;-70
2022/08/23 04:34:22;;;;;;;10.38;5.40;;;;;;;19.16;82.97;101390.97;5034899;28;20021;-68
2022/08/23 04:36:48;;;;;;;10.25;4.97;;;;;;;19.14;83.04;101392.22;5034678;28;20025;-68
2022/08/23 04:39:14;;;;;;;10.05;5.50;;;;;;;18.92;83.80;101371.03;5034695;28;20025;-69
2022/08/23 04:44:23;;;;;;;13.30;5.85;;;;;;;19.03;82.97;101372.06;5034591;28;20100;-69
2022/08/23 04:46:49;;;;;;;10.65;5.60;;;;;;;19.10;82.17;101396.31;5034440;28;20694;-69
2022/08/23 04:49:14;;;;;;;10.35;6.20;;;;;;;19.07;81.90;101400.19;5034463;28;20029;-69
2022/08/23 04:51:40;;;;;;;10.88;5.90;;;;;;;19.14;81.53;101393.03;5034276;28;20046;-69
2022/08/23 04:54:06;;;;;;;11.55;5.75;;;;;;;19.03;82.31;101393.03;5034353;28;20033;-70
2022/08/23 04:56:32;;;;;;;11.90;6.25;;;;;;;19.12;82.22;101399.50;5033065;28;20021;-69
2022/08/23 04:58:57;;;;;;;12.07;6.47;;;;;;;19.02;82.10;101387.00;5034232;28;20468;-70
2022/08/23 05:01:25;;;;;;;10.95;5.97;;;;;;;19.14;82.48;101395.66;5034417;28;20457;-69
2022/08/23 05:03:51;;;;;;;13.80;5.90;;;;;;;19.15;81.55;101394.59;5032962;28;20116;-69
2022/08/23 05:06:17;;;;;;;12.13;5.75;;;;;;;19.11;81.27;101388.25;5034124;28;20500;-70
2022/08/23 05:08:42;;;;;;;13.65;6.03;;;;;;;19.25;81.43;101393.22;5034192;28;20021;-69
2022/08/23 05:11:08;;;;;;;20.98;6.47;;;;;;;19.19;81.44;101389.72;5034007;28;20185;-70
2022/08/23 05:13:35;;;;;;;10.77;6.00;;;;;;;19.17;80.51;101397.81;5032775;28;20056;-70
2022/08/23 05:16:01;;;;;;;11.82;5.75;;;;;;;19.30;80.43;101398.59;5033959;28;20112;-69
2022/08/23 05:18:27;;;;;;;11.40;6.03;;;;;;;19.28;80.58;101409.31;5034141;28;20025;-70
2022/08/23 05:20:52;;;;;;;10.77;6.20;;;;;;;19.22;81.28;101402.38;5033929;28;20087;-70
2022/08/23 05:23:18;;;;;;;10.98;5.68;;;;;;;19.25;80.91;101404.53;5034064;28;20080;-70
2022/08/23 05:25:49;;;;;;;10.60;5.70;;;;;;;19.32;80.76;101405.19;5032567;28;20029;-70
2022/08/23 05:28:18;;;;;;;10.32;5.90;;;;;;;19.30;80.61;101409.84;5032448;28;20033;-70
2022/08/23 05:30:52;;;;;;;13.23;5.93;;;;;;;19.31;80.52;101410.69;5033940;28;20092;-70
2022/08/23 05:33:18;;;;;;;12.63;5.88;;;;;;;19.41;80.86;101407.47;5032416;28;20030;-70
2022/08/23 05:35:43;;;;;;;16.33;5.88;;;;;;;19.38;80.77;101413.97;5033715;28;20036;-70
2022/08/23 05:38:08;;;;;;;10.07;5.70;;;;;;;19.44;81.07;101413.03;5032331;28;20021;-71
2022/08/23 05:40:33;;;;;;;11.45;5.80;;;;;;;19.40;81.19;101419.78;5033446;28;20025;-69
2022/08/23 05:42:59;;;;;;;14.70;5.70;;;;;;;19.27;80.31;101394.59;5033107;28;20116;-70
2022/08/23 05:45:24;;;;;;;10.10;5.75;;;;;;;19.38;81.18;101419.19;5033554;28;20568;-70
2022/08/23 05:47:49;;;;;;;11.63;5.45;;;;;;;19.42;81.10;101414.28;5033362;28;20104;-70
2022/08/23 05:50:15;;;;;;;16.58;6.13;;;;;;;19.59;81.24;101409.94;5033305;28;20124;-69
2022/08/23 05:52:40;;;;;;;14.02;6.03;;;;;;;19.81;79.81;101418.00;5033268;28;20501;-69
2022/08/23 05:55:06;;;;;;;10.65;5.80;;;;;;;19.57;80.70;101417.25;5032107;28;20025;-70
2022/08/23 05:57:36;;;;;;;11.68;5.75;;;;;;;19.74;80.37;101406.88;5015560;28;20025;-70
2022/08/23 06:00:05;;;;;;;16.25;6.47;;;;;;;19.76;80.24;101416.06;5032333;28;20021;-69
2022/08/23 06:02:30;;;;;;;12.38;6.28;;;;;;;19.82;80.30;101419.59;5033309;28;20029;-70
2022/08/23 06:04:56;;;;;;;14.05;6.20;;;;;;;19.86;80.40;101417.31;5033153;28;20435;-70
2022/08/23 06:07:21;;;;;;;9.85;5.95;;;;;;;20.07;79.96;101421.91;5031957;28;20053;-71
2022/08/23 06:09:47;;;;;;;12.98;5.95;;;;;;;20.09;79.76;101419.06;5031845;28;20018;-71
2022/08/23 06:12:12;;;;;;;13.48;6.07;;;;;;;20.44;78.81;101426.75;5033116;28;20493;-70
2022/08/23 06:14:37;;;;;;;14.85;6.15;;;;;;;20.60;77.10;101435.69;5031788;28;20030;-68
2022/08/23 06:17:03;;;;;;;13.25;5.95;;;;;;;20.69;76.09;101432.47;5033100;28;20025;-69
2022/08/23 06:19:28;;;;;;;11.20;5.53;;;;;;;20.83;75.63;101434.75;5033073;28;20017;-69
2022/08/23 06:21:54;;;;;;;10.32;6.00;;;;;;;20.96;74.73;101429.97;5033057;28;20052;-69
2022/08/23 06:24:20;;;;;;;10.88;5.85;;;;;;;21.06;74.49;101429.34;5031716;28;20457;-69
2022/08/23 06:26:46;;;;;;;12.30;6.00;;;;;;;21.46;73.10;101430.16;5032958;28;20029;-69
2022/08/23 06:29:14;;;;;;;13.93;6.07;;;;;;;21.70;70.97;101433.34;5031789;28;20191;-69
2022/08/23 06:31:45;;;;;;;13.18;6.00;;;;;;;21.55;71.47;101429.50;5032987;28;20060;-69
2022/08/23 06:34:37;;;;;;;11.75;6.10;;;;;;;22.17;68.69;101430.16;5031655;28;20076;-68
2022/08/23 06:37:04;;;;;;;10.90;5.20;;;;;;;26.17;55.48;101430.63;5029851;28;20040;-69
2022/08/23 06:39:30;;;;;;;9.13;5.38;;;;;;;29.18;48.71;101423.25;5031626;28;20116;-69
2022/08/23 06:42:01;;;;;;;13.02;5.45;;;;;;;30.08;45.53;101420.75;5031572;28;20554;-69
2022/08/23 06:44:28;;;;;;;14.00;5.20;;;;;;;30.44;43.29;101424.44;5032909;28;20388;-69
2022/08/23 06:46:55;;;;;;;16.45;4.82;;;;;;;30.54;43.11;101430.31;5032905;28;20017;-70
2022/08/23 06:49:22;;;;;;;11.70;4.80;;;;;;;31.33;41.21;101428.72;5032672;28;20051;-69
2022/08/23 06:51:50;;;;;;;9.93;4.88;;;;;;;29.59;44.23;101424.28;5032562;28;20033;-69
2022/08/23 06:54:18;;;;;;;12.10;4.60;;;;;;;31.87;39.79;101431.91;5032115;28;20107;-69
2022/08/23 06:56:44;;;;;;;10.45;4.82;;;;;;;32.48;37.94;101428.41;5036670;28;20127;-69
2022/08/23 06:59:11;;;;;;;11.20;4.70;;;;;;;32.03;38.63;101431.47;5036386;28;20033;-69
2022/08/23 07:02:04;;;;;;;9.23;4.72;;;;;;;30.57;41.55;101428.91;5035124;28;20431;-70
2022/08/23 07:04:36;;;;;;;12.93;4.90;;;;;;;30.71;40.37;101424.28;5033997;28;20040;-69
2022/08/23 07:07:02;;;;;;;16.77;5.10;;;;;;;31.61;38.94;101437.25;5035058;28;20028;-69
2022/08/23 07:09:29;;;;;;;11.38;4.93;;;;;;;28.88;45.30;101429.13;5036345;28;20033;-70
2022/08/23 07:11:54;;;;;;;13.57;4.57;;;;;;;31.56;39.35;101420.59;5036308;28;20052;-69
2022/08/23 07:14:21;;;;;;;12.73;5.00;;;;;;;32.92;36.47;101424.44;5034978;28;20477;-69
2022/08/23 07:16:56;;;;;;;10.25;4.53;;;;;;;34.57;34.88;101430.38;5034843;28;20517;-69
2022/08/23 07:19:26;;;;;;;12.88;4.40;;;;;;;35.03;33.18;101434.50;5034857;28;20061;-69
2022/08/23 07:21:52;;;;;;;9.43;4.43;;;;;;;34.01;34.08;101420.06;5034799;28;20021;-69
2022/08/23 07:24:18;;;;;;;11.65;4.53;;;;;;;33.59;34.76;101438.09;5034071;28;20552;-69
2022/08/23 07:26:46;;;;;;;12.05;4.50;;;;;;;32.84;34.62;101437.88;5034834;28;20025;-69
2022/08/23 07:29:14;;;;;;;8.90;4.50;;;;;;;31.67;37.22;101443.22;5035621;28;20116;-69
2022/08/23 07:31:46;;;;;;;8.85;3.90;;;;;;;31.52;36.94;101446.38;5034228;28;20036;-69
2022/08/23 07:34:12;;;;;;;10.20;3.90;;;;;;;28.76;40.40;101442.91;5033871;28;20025;-70
2022/08/23 07:36:39;;;;;;;11.40;4.30;;;;;;;27.58;44.23;101455.25;5034668;28;20028;-70
2022/08/23 07:39:06;;;;;;;11.38;4.40;;;;;;;28.03;42.86;101457.63;5035184;28;20032;-70
2022/08/23 07:41:33;;;;;;;10.57;4.50;;;;;;;30.76;37.11;101452.72;5034008;28;20041;-69
2022/08/23 07:44:01;;;;;;;14.80;4.30;;;;;;;29.19;39.47;101453.31;5035248;28;20064;-70
2022/08/23 07:46:27;;;;;;;11.40;3.90;;;;;;;27.72;43.73;101458.00;5035328;28;20055;-69
2022/08/23 07:48:54;;;;;;;10.30;3.58;;;;;;;27.82;45.16;101463.22;5035706;28;20484;-70
2022/08/23 07:51:20;;;;;;;11.38;3.83;;;;;;;26.82;45.52;101461.41;5035335;28;20032;-69
2022/08/23 07:53:46;;;;;;;11.95;3.83;;;;;;;27.93;42.83;101460.41;5035477;28;20040;-69
2022/08/23 07:56:14;;;;;;;12.27;4.35;;;;;;;28.00;41.70;101466.19;5034191;28;20021;-69
2022/08/23 07:58:40;;;;;;;10.30;4.47;;;;;;;29.18;39.05;101463.16;5035370;28;20028;-69
2022/08/23 08:01:16;;;;;;;13.05;4.47;;;;;;;30.60;37.26;101465.63;5035267;28;20025;-70
2022/08/23 08:03:43;;;;;;;11.18;4.30;;;;;;;33.09;33.20;101468.28;5035270;28;20083;-69
2022/08/23 08:06:11;;;;;;;12.77;4.50;;;;;;;29.69;37.56;101472.00;5034794;28;20481;-70
2022/08/23 08:08:39;;;;;;;12.20;4.82;;;;;;;28.18;41.66;101473.31;5035090;28;20033;-69
2022/08/23 08:11:06;;;;;;;12.93;5.10;;;;;;;27.68;42.75;101486.22;5035177;28;20028;-69
2022/08/23 08:13:31;;;;;;;13.32;4.72;;;;;;;27.99;42.08;101483.94;5033947;28;20040;-69
2022/08/23 08:15:57;;;;;;;16.25;5.43;;;;;;;28.19;41.07;101487.41;5035064;28;20485;-69
2022/08/23 08:18:22;;;;;;;13.45;4.95;;;;;;;30.57;37.81;101477.69;5033791;28;20479;-69
2022/08/23 08:20:47;;;;;;;10.27;5.07;;;;;;;29.98;38.79;101484.97;5033694;28;20525;-69
2022/08/23 08:23:13;;;;;;;15.27;4.97;;;;;;;29.91;38.81;101485.38;5033783;28;20264;-68
2022/08/23 08:25:38;;;;;;;12.63;4.85;;;;;;;28.98;41.60;101482.16;5035028;28;20104;-68
2022/08/23 08:28:03;;;;;;;10.73;5.03;;;;;;;28.02;43.49;101490.56;5033565;28;20100;-69
2022/08/23 08:30:28;;;;;;;16.77;5.78;;;;;;;28.51;43.47;101487.47;5033684;28;20346;-69
2022/08/23 08:32:54;;;;;;;13.05;5.25;;;;;;;29.69;41.63;101474.66;5034931;28;20056;-69
2022/08/23 08:35:19;;;;;;;12.70;5.38;;;;;;;29.79;40.93;101487.00;5034645;28;20156;-71
2022/08/23 08:37:45;;;;;;;12.57;5.50;;;;;;;29.80;40.82;101492.00;5033762;28;20716;-70
2022/08/23 08:40:10;;;;;;;16.25;5.13;;;;;;;29.80;42.06;101483.22;5033321;28;20083;-71
2022/08/23 08:42:39;;;;;;;13.23;4.85;;;;;;;29.39;43.22;101489.38;5034532;28;20029;-69
2022/08/23 08:45:27;;;;;;;13.63;5.43;;;;;;;29.04;42.51;101501.50;5034471;28;20057;-70
2022/08/23 08:48:13;;;;;;;12.02;5.35;;;;;;;29.38;41.79;101501.13;5033267;28;20025;-70
2022/08/23 08:50:53;;;;;;;15.20;5.35;;;;;;;29.68;40.23;101499.72;5034355;28;20029;-70
2022/08/23 08:53:33;;;;;;;14.02;5.50;;;;;;;29.81;40.06;101506.13;5032737;28;20120;-70
2022/08/23 08:56:02;;;;;;;13.40;5.50;;;;;;;29.81;39.37;101496.25;5034292;28;20089;-69
2022/08/23 08:58:46;;;;;;;14.13;5.70;;;;;;;29.33;39.72;101498.56;5034158;28;20120;-70
2022/08/23 09:01:11;;;;;;;16.10;5.40;;;;;;;28.95;40.44;101493.38;5034124;28;20500;-70
2022/08/23 09:03:38;;;;;;;13.52;5.22;;;;;;;29.13;41.33;101497.84;5034211;28;20037;-69
2022/08/23 09:06:26;;;;;;;13.02;5.70;;;;;;;29.21;40.25;101497.16;5034134;28;20108;-69
2022/08/23 09:09:15;;;;;;;17.73;5.43;;;;;;;28.87;40.45;101505.47;5034128;28;20029;-69
2022/08/23 09:12:03;;;;;;;19.25;5.60;;;;;;;30.43;38.88;101513.53;5033964;28;20030;-69
2022/08/23 09:14:37;;;;;;;10.80;5.00;;;;;;;30.85;39.83;101508.81;5032735;28;20026;-69
2022/08/23 09:17:23;;;;;;;13.27;5.70;;;;;;;29.48;40.47;101511.56;5033164;28;20101;-69
2022/08/23 09:19:51;;;;;;;15.48;6.80;;;;;;;29.27;39.66;101505.84;5031122;28;20423;-69
2022/08/23 09:22:27;;;;;;;18.25;5.72;;;;;;;29.11;41.45;101508.00;5033756;28;20031;-69
2022/08/23 09:24:52;;;;;;;14.05;5.30;;;;;;;28.44;42.78;101513.63;5033836;28;20530;-69
2022/08/23 09:27:19;;;;;;;13.67;5.40;;;;;;;28.66;41.12;101510.34;5033777;28;20108;-69
2022/08/23 09:29:56;;;;;;;16.73;5.80;;;;;;;28.88;41.24;101512.38;5032406;28;20284;-70
2022/08/23 09:32:32;;;;;;;13.68;5.90;;;;;;;28.34;40.75;101516.41;5034221;28;20033;-69
2022/08/23 09:35:24;;;;;;;11.63;5.45;;;;;;;28.42;41.55;101513.13;5033609;28;20074;-70
2022/08/23 09:38:05;;;;;;;18.88;6.15;;;;;;;28.73;41.01;101513.41;5028461;28;20396;-71
2022/08/23 09:40:36;;;;;;;19.50;5.45;;;;;;;28.90;41.17;101498.78;5032383;28;20048;-70
2022/08/23 09:43:24;;;;;;;14.18;5.60;;;;;;;29.17;39.82;101492.72;5033446;28;20049;-71
2022/08/23 09:45:50;;;;;;;16.60;5.70;;;;;;;29.40;39.74;101493.59;5033408;28;20027;-70
2022/08/23 09:48:35;;;;;;;16.93;5.07;;;;;;;30.19;38.17;101481.84;5033709;28;20528;-70
2022/08/23 09:51:12;;;;;;;12.50;5.20;;;;;;;29.60;39.41;101481.75;5033368;28;20371;-69
2022/08/23 09:53:39;;;;;;;13.63;5.30;;;;;;;29.54;39.31;101486.41;5033928;28;20068;-69
2022/08/23 09:56:15;;;;;;;15.80;5.07;;;;;;;29.42;39.49;101494.09;5033779;28;20048;-69
2022/08/23 09:58:45;;;;;;;15.05;4.28;;;;;;;30.40;37.81;101488.25;5033717;28;20037;-71
2022/08/23 10:01:18;;;;;;;11.25;3.00;;;;;;;30.44;37.62;101494.59;5033769;28;20045;-70
2022/08/23 10:03:43;;;;;;;9.18;3.60;;;;;;;30.36;37.52;101489.97;5033630;28;20083;-71
2022/08/23 10:06:14;;;;;;;12.00;3.53;;;;;;;29.80;38.74;101489.34;5033522;28;20029;-70
2022/08/23 10:08:52;;;;;;;10.85;3.38;;;;;;;30.20;38.40;101491.38;5033191;28;20030;-70
2022/08/23 10:11:28;;;;;;;10.68;3.10;;;;;;;30.93;36.94;101484.00;5033015;28;20083;-71
2022/08/23 10:13:54;;;;;;;9.07;3.38;;;;;;;30.89;37.21;101485.75;5033117;28;20036;-70
2022/08/23 10:16:36;;;;;;;10.98;3.10;;;;;;;31.72;36.78;101483.16;5032982;28;20029;-71
2022/08/23 10:19:14;;;;;;;12.30;2.50;;;;;;;31.11;36.28;101484.91;5031626;28;20035;-70
2022/08/23 10:21:56;;;;;;;12.45;2.70;;;;;;;30.16;38.34;101483.22;5033026;28;20029;-70
2022/08/23 10:24:39;;;;;;;10.07;2.70;;;;;;;30.42;37.95;101482.66;5033046;28;20053;-70
2022/08/23 10:30:16;;;;;;;7.15;2.60;;;;;;;31.02;36.71;101476.84;5036984;28;20024;-69
2022/08/23 10:33:18;;;;;;;12.55;3.10;;;;;;;31.70;37.04;101477.34;5036940;28;20076;-69
2022/08/23 10:36:05;;;;;;;12.07;3.40;;;;;;;32.11;35.88;101463.53;5036828;28;20029;-69
2022/08/23 10:38:56;;;;;;;11.90;3.17;;;;;;;31.69;36.15;101457.84;5035684;28;20048;-69
2022/08/23 10:41:58;;;;;;;10.63;3.40;;;;;;;31.84;36.87;101463.81;5035425;28;20032;-69
2022/08/23 10:44:42;;;;;;;;;;;;;;;30.14;38.37;101450.75;5035962;28;20397;-69
2022/08/23 10:47:31;;;;;;;11.35;3.35;;;;;;;31.40;36.79;101461.13;5036736;28;19909;-70
2022/08/23 10:50:03;;;;;;;15.00;3.20;;;;;;;31.29;37.07;101448.34;5035316;28;20164;-70
2022/08/23 10:52:51;;;;;;;10.52;3.45;;;;;;;30.29;38.21;101439.72;5035232;28;20175;-70
2022/08/23 10:55:34;;;;;;;13.82;3.70;;;;;;;29.65;39.68;101457.72;5035311;28;20505;-68
2022/08/23 10:58:04;;;;;;;8.02;3.00;;;;;;;29.95;39.67;101456.22;5036576;28;20064;-69
2022/08/23 11:00:30;;;;;;;8.20;2.90;;;;;;;30.84;38.26;101456.53;5035115;28;20033;-69
2022/08/23 11:03:08;;;;;;;11.68;3.08;;;;;;;32.29;36.05;101460.84;5036444;28;20038;-70
2022/08/23 11:05:36;;;;;;;11.18;2.70;;;;;;;32.07;35.76;101451.13;5036150;28;20060;-69
2022/08/23 11:08:05;;;;;;;12.73;3.20;;;;;;;32.60;35.06;101460.63;5036285;28;20029;-69
2022/08/23 11:10:36;;;;;;;8.75;2.83;;;;;;;33.29;36.07;101454.19;5034426;28;20112;-69
2022/08/23 11:13:20;;;;;;;6.70;2.30;;;;;;;32.05;36.27;101464.00;5034236;28;20245;-70
2022/08/23 11:16:13;;;;;;;13.77;3.00;;;;;;;31.20;36.55;101453.66;5037166;28;20025;-69
2022/08/23 11:18:49;;;;;;;12.35;2.95;;;;;;;30.90;38.24;101463.28;5035139;28;20025;-69
2022/08/23 11:21:23;;;;;;;11.90;3.17;;;;;;;30.84;37.51;101465.31;5034823;28;20080;-69
2022/08/23 11:23:57;;;;;;;10.15;2.90;;;;;;;32.18;35.71;101467.63;5036000;28;20026;-69
2022/08/23 11:26:30;;;;;;;9.23;2.70;;;;;;;31.00;37.55;101450.47;5034709;28;20424;-69
2022/08/23 11:29:04;;;;;;;7.82;2.67;;;;;;;30.48;38.87;101452.88;5035906;28;20100;-69
2022/08/23 11:31:50;;;;;;;8.48;2.70;;;;;;;30.10;38.59;101463.91;5035986;28;20033;-69
2022/08/23 11:34:32;;;;;;;11.10;2.50;;;;;;;29.13;40.69;101468.59;5035779;28;20102;-69
2022/08/23 11:37:19;;;;;;;7.40;2.20;;;;;;;29.50;40.14;101463.34;5035898;28;20063;-69
2022/08/23 11:39:56;;;;;;;8.93;2.50;;;;;;;29.36;40.52;101463.34;5033432;28;20017;-69
2022/08/23 11:42:23;;;;;;;8.10;2.58;;;;;;;29.24;40.49;101472.63;5034504;28;20350;-69